Terminal Aerodrome Forecast
Issued by NWS

Home | Current Version | Previous Version | Text Only | Print | Product List | Glossary On
Versions: 1 2 3 4 5 6 7 8 9 10 11 12
000
FTAK31 PAJN 042324
TAFASI
TAF
PASI 042324Z 0500/0524 20010KT P6SM VCSH SCT020 OVC050
     FM050200 17010KT P6SM -RA OVC040
     FM050500 15013G25KT 6SM RA SCT015 OVC030 WS020/14030KT
     FM051400 14009G16KT 6SM -RA SCT015 OVC030 WS020/15030KT
     FM051700 15008G14KT P6SM -SHRA SCT015 OVC040 WS020/15020KT
     FM052100 15008KT P6SM -SHRA SCT020 OVC045=

USA.gov is the U.S. government's official web portal to all federal, state and local government web resources and services.